sensor_id;sensor_type;location;lat;lon;timestamp;P1;durP1;ratioP1;P2;durP2;ratioP2
23185;SDS011;11761;51.324;4.590;2022-10-31T00:00:46;7.22;;;4.45;;
23185;SDS011;11761;51.324;4.590;2022-10-31T00:03:12;10.07;;;4.45;;
23185;SDS011;11761;51.324;4.590;2022-10-31T00:05:42;7.13;;;4.38;;
23185;SDS011;11761;51.324;4.590;2022-10-31T00:08:09;8.98;;;4.85;;
23185;SDS011;11761;51.324;4.590;2022-10-31T00:10:39;6.53;;;4.00;;
23185;SDS011;11761;51.324;4.590;2022-10-31T00:13:06;6.45;;;3.97;;
23185;SDS011;11761;51.324;4.590;2022-10-31T00:15:35;6.35;;;3.80;;
23185;SDS011;11761;51.324;4.590;2022-10-31T00:18:05;6.38;;;3.67;;
23185;SDS011;11761;51.324;4.590;2022-10-31T00:20:32;5.80;;;3.78;;
23185;SDS011;11761;51.324;4.590;2022-10-31T00:22:59;7.68;;;4.45;;
23185;SDS011;11761;51.324;4.590;2022-10-31T00:25:26;6.53;;;4.18;;
23185;SDS011;11761;51.324;4.590;2022-10-31T00:27:54;9.27;;;4.20;;
23185;SDS011;11761;51.324;4.590;2022-10-31T00:30:20;7.50;;;4.55;;
23185;SDS011;11761;51.324;4.590;2022-10-31T00:32:46;6.15;;;4.28;;
23185;SDS011;11761;51.324;4.590;2022-10-31T00:35:13;7.45;;;4.50;;
23185;SDS011;11761;51.324;4.590;2022-10-31T00:37:39;10.00;;;4.20;;
23185;SDS011;11761;51.324;4.590;2022-10-31T00:40:05;7.75;;;4.78;;
23185;SDS011;11761;51.324;4.590;2022-10-31T00:42:31;7.72;;;4.43;;
23185;SDS011;11761;51.324;4.590;2022-10-31T00:44:57;5.18;;;3.67;;
23185;SDS011;11761;51.324;4.590;2022-10-31T00:47:23;6.57;;;4.00;;
23185;SDS011;11761;51.324;4.590;2022-10-31T00:49:49;7.68;;;4.70;;
23185;SDS011;11761;51.324;4.590;2022-10-31T00:52:16;8.02;;;4.30;;
23185;SDS011;11761;51.324;4.590;2022-10-31T00:54:42;7.40;;;4.13;;
23185;SDS011;11761;51.324;4.590;2022-10-31T00:57:08;9.57;;;4.70;;
23185;SDS011;11761;51.324;4.590;2022-10-31T00:59:34;5.88;;;3.63;;
23185;SDS011;11761;51.324;4.590;2022-10-31T01:02:00;5.53;;;3.95;;
23185;SDS011;11761;51.324;4.590;2022-10-31T01:04:26;6.40;;;2.67;;
23185;SDS011;11761;51.324;4.590;2022-10-31T01:06:52;6.97;;;4.22;;
23185;SDS011;11761;51.324;4.590;2022-10-31T01:09:18;6.88;;;4.28;;
23185;SDS011;11761;51.324;4.590;2022-10-31T01:11:44;6.80;;;4.03;;
23185;SDS011;11761;51.324;4.590;2022-10-31T01:14:10;6.20;;;4.03;;
23185;SDS011;11761;51.324;4.590;2022-10-31T01:16:36;7.85;;;3.45;;
23185;SDS011;11761;51.324;4.590;2022-10-31T01:19:02;5.93;;;3.65;;
23185;SDS011;11761;51.324;4.590;2022-10-31T01:21:29;6.03;;;3.95;;
23185;SDS011;11761;51.324;4.590;2022-10-31T01:23:56;6.55;;;4.10;;
23185;SDS011;11761;51.324;4.590;2022-10-31T01:26:26;6.05;;;4.30;;
23185;SDS011;11761;51.324;4.590;2022-10-31T01:28:59;8.40;;;4.25;;
23185;SDS011;11761;51.324;4.590;2022-10-31T01:31:27;7.35;;;4.47;;
23185;SDS011;11761;51.324;4.590;2022-10-31T01:33:56;8.15;;;4.70;;
23185;SDS011;11761;51.324;4.590;2022-10-31T01:36:26;6.88;;;4.43;;
23185;SDS011;11761;51.324;4.590;2022-10-31T01:38:53;7.93;;;4.07;;
23185;SDS011;11761;51.324;4.590;2022-10-31T01:41:24;8.88;;;4.20;;
23185;SDS011;11761;51.324;4.590;2022-10-31T01:46:26;7.22;;;4.70;;
23185;SDS011;11761;51.324;4.590;2022-10-31T01:49:03;9.02;;;5.05;;
23185;SDS011;11761;51.324;4.590;2022-10-31T01:51:34;9.45;;;5.30;;
23185;SDS011;11761;51.324;4.590;2022-10-31T01:54:06;6.38;;;4.07;;
23185;SDS011;11761;51.324;4.590;2022-10-31T01:56:36;9.25;;;4.80;;
23185;SDS011;11761;51.324;4.590;2022-10-31T01:59:07;6.88;;;4.30;;
23185;SDS011;11761;51.324;4.590;2022-10-31T02:01:36;7.03;;;4.60;;
23185;SDS011;11761;51.324;4.590;2022-10-31T02:04:03;7.15;;;4.45;;
23185;SDS011;11761;51.324;4.590;2022-10-31T02:06:38;9.35;;;4.78;;
23185;SDS011;11761;51.324;4.590;2022-10-31T02:09:12;10.48;;;4.75;;
23185;SDS011;11761;51.324;4.590;2022-10-31T02:11:39;8.07;;;5.20;;
23185;SDS011;11761;51.324;4.590;2022-10-31T02:14:06;8.00;;;5.07;;
23185;SDS011;11761;51.324;4.590;2022-10-31T02:16:32;10.07;;;5.63;;
23185;SDS011;11761;51.324;4.590;2022-10-31T02:18:58;10.30;;;5.53;;
23185;SDS011;11761;51.324;4.590;2022-10-31T02:21:28;8.95;;;4.90;;
23185;SDS011;11761;51.324;4.590;2022-10-31T02:33:14;8.18;;;3.90;;
23185;SDS011;11761;51.324;4.590;2022-10-31T02:40:48;9.68;;;5.60;;
23185;SDS011;11761;51.324;4.590;2022-10-31T02:46:14;7.32;;;4.45;;
23185;SDS011;11761;51.324;4.590;2022-10-31T02:48:46;6.80;;;4.07;;
23185;SDS011;11761;51.324;4.590;2022-10-31T02:51:15;8.90;;;5.20;;
23185;SDS011;11761;51.324;4.590;2022-10-31T02:53:43;8.77;;;5.20;;
23185;SDS011;11761;51.324;4.590;2022-10-31T02:56:13;8.57;;;5.05;;
23185;SDS011;11761;51.324;4.590;2022-10-31T02:58:51;7.45;;;4.38;;
23185;SDS011;11761;51.324;4.590;2022-10-31T03:01:33;7.90;;;4.75;;
23185;SDS011;11761;51.324;4.590;2022-10-31T03:04:29;7.50;;;4.60;;
23185;SDS011;11761;51.324;4.590;2022-10-31T03:08:03;8.48;;;5.00;;
23185;SDS011;11761;51.324;4.590;2022-10-31T03:13:08;7.90;;;4.93;;
23185;SDS011;11761;51.324;4.590;2022-10-31T03:15:39;7.40;;;4.70;;
23185;SDS011;11761;51.324;4.590;2022-10-31T03:21:18;7.82;;;4.45;;
23185;SDS011;11761;51.324;4.590;2022-10-31T03:23:45;10.05;;;5.40;;
23185;SDS011;11761;51.324;4.590;2022-10-31T03:26:13;7.95;;;4.55;;
23185;SDS011;11761;51.324;4.590;2022-10-31T03:28:47;9.15;;;4.35;;
23185;SDS011;11761;51.324;4.590;2022-10-31T03:31:17;6.80;;;4.05;;
23185;SDS011;11761;51.324;4.590;2022-10-31T03:33:45;7.07;;;4.47;;
23185;SDS011;11761;51.324;4.590;2022-10-31T03:36:15;7.10;;;4.38;;
23185;SDS011;11761;51.324;4.590;2022-10-31T03:38:42;8.77;;;4.70;;
23185;SDS011;11761;51.324;4.590;2022-10-31T03:41:11;8.25;;;4.47;;
23185;SDS011;11761;51.324;4.590;2022-10-31T03:43:46;6.35;;;4.05;;
23185;SDS011;11761;51.324;4.590;2022-10-31T03:46:19;5.97;;;3.67;;
23185;SDS011;11761;51.324;4.590;2022-10-31T03:48:46;6.75;;;4.32;;
23185;SDS011;11761;51.324;4.590;2022-10-31T03:51:18;6.90;;;4.43;;
23185;SDS011;11761;51.324;4.590;2022-10-31T03:54:13;7.28;;;3.88;;
23185;SDS011;11761;51.324;4.590;2022-10-31T03:56:41;5.57;;;3.83;;
23185;SDS011;11761;51.324;4.590;2022-10-31T03:59:16;5.07;;;3.65;;
23185;SDS011;11761;51.324;4.590;2022-10-31T04:01:51;7.72;;;4.15;;
23185;SDS011;11761;51.324;4.590;2022-10-31T04:04:21;6.18;;;3.67;;
23185;SDS011;11761;51.324;4.590;2022-10-31T04:06:48;7.63;;;4.32;;
23185;SDS011;11761;51.324;4.590;2022-10-31T04:09:16;6.13;;;3.85;;
23185;SDS011;11761;51.324;4.590;2022-10-31T04:11:45;6.13;;;3.70;;
23185;SDS011;11761;51.324;4.590;2022-10-31T04:14:15;6.20;;;3.97;;
23185;SDS011;11761;51.324;4.590;2022-10-31T04:16:41;8.30;;;4.82;;
23185;SDS011;11761;51.324;4.590;2022-10-31T04:19:09;5.30;;;3.30;;
23185;SDS011;11761;51.324;4.590;2022-10-31T04:21:36;7.95;;;4.40;;
23185;SDS011;11761;51.324;4.590;2022-10-31T04:24:03;7.45;;;4.22;;
23185;SDS011;11761;51.324;4.590;2022-10-31T04:26:30;6.90;;;4.55;;
23185;SDS011;11761;51.324;4.590;2022-10-31T04:28:56;8.25;;;4.30;;
23185;SDS011;11761;51.324;4.590;2022-10-31T04:31:22;8.88;;;4.40;;
23185;SDS011;11761;51.324;4.590;2022-10-31T04:33:48;8.15;;;4.65;;
23185;SDS011;11761;51.324;4.590;2022-10-31T04:36:14;8.05;;;4.70;;
23185;SDS011;11761;51.324;4.590;2022-10-31T04:38:40;8.52;;;4.63;;
23185;SDS011;11761;51.324;4.590;2022-10-31T04:41:06;8.40;;;4.97;;
23185;SDS011;11761;51.324;4.590;2022-10-31T04:43:32;9.32;;;4.90;;
23185;SDS011;11761;51.324;4.590;2022-10-31T04:45:58;8.75;;;4.70;;
23185;SDS011;11761;51.324;4.590;2022-10-31T04:48:24;8.65;;;3.47;;
23185;SDS011;11761;51.324;4.590;2022-10-31T04:50:51;6.40;;;4.07;;
23185;SDS011;11761;51.324;4.590;2022-10-31T04:53:18;7.65;;;4.03;;
23185;SDS011;11761;51.324;4.590;2022-10-31T04:55:44;9.40;;;5.32;;
23185;SDS011;11761;51.324;4.590;2022-10-31T04:58:10;7.75;;;4.43;;
23185;SDS011;11761;51.324;4.590;2022-10-31T05:00:36;6.68;;;4.10;;
23185;SDS011;11761;51.324;4.590;2022-10-31T05:03:02;7.22;;;4.43;;
23185;SDS011;11761;51.324;4.590;2022-10-31T05:05:29;9.25;;;4.70;;
23185;SDS011;11761;51.324;4.590;2022-10-31T05:07:56;6.90;;;4.00;;
23185;SDS011;11761;51.324;4.590;2022-10-31T05:10:24;6.13;;;3.53;;
23185;SDS011;11761;51.324;4.590;2022-10-31T05:12:53;6.63;;;3.85;;
23185;SDS011;11761;51.324;4.590;2022-10-31T05:15:21;7.15;;;4.22;;
23185;SDS011;11761;51.324;4.590;2022-10-31T05:17:48;6.90;;;3.90;;
23185;SDS011;11761;51.324;4.590;2022-10-31T05:20:15;7.25;;;3.78;;
23185;SDS011;11761;51.324;4.590;2022-10-31T05:22:43;6.85;;;3.80;;
23185;SDS011;11761;51.324;4.590;2022-10-31T05:25:13;8.52;;;4.28;;
23185;SDS011;11761;51.324;4.590;2022-10-31T05:27:44;9.40;;;4.85;;
23185;SDS011;11761;51.324;4.590;2022-10-31T05:30:14;7.03;;;3.97;;
23185;SDS011;11761;51.324;4.590;2022-10-31T05:32:43;6.10;;;3.65;;
23185;SDS011;11761;51.324;4.590;2022-10-31T05:35:13;6.18;;;4.07;;
23185;SDS011;11761;51.324;4.590;2022-10-31T05:37:44;5.50;;;3.60;;
23185;SDS011;11761;51.324;4.590;2022-10-31T05:40:11;6.28;;;4.22;;
23185;SDS011;11761;51.324;4.590;2022-10-31T05:42:39;6.47;;;3.92;;
23185;SDS011;11761;51.324;4.590;2022-10-31T05:45:06;6.22;;;4.03;;
23185;SDS011;11761;51.324;4.590;2022-10-31T05:47:33;5.47;;;3.47;;
23185;SDS011;11761;51.324;4.590;2022-10-31T05:50:00;5.65;;;3.70;;
23185;SDS011;11761;51.324;4.590;2022-10-31T05:52:26;5.55;;;3.83;;
23185;SDS011;11761;51.324;4.590;2022-10-31T05:54:52;6.60;;;3.90;;
23185;SDS011;11761;51.324;4.590;2022-10-31T05:57:18;7.93;;;3.67;;
23185;SDS011;11761;51.324;4.590;2022-10-31T05:59:44;7.63;;;4.13;;
23185;SDS011;11761;51.324;4.590;2022-10-31T06:02:10;7.35;;;3.80;;
23185;SDS011;11761;51.324;4.590;2022-10-31T06:04:36;6.57;;;4.15;;
23185;SDS011;11761;51.324;4.590;2022-10-31T06:07:02;6.65;;;4.05;;
23185;SDS011;11761;51.324;4.590;2022-10-31T06:09:28;7.40;;;4.22;;
23185;SDS011;11761;51.324;4.590;2022-10-31T06:11:55;6.45;;;3.97;;
23185;SDS011;11761;51.324;4.590;2022-10-31T06:14:21;6.53;;;3.22;;
23185;SDS011;11761;51.324;4.590;2022-10-31T06:16:47;4.90;;;3.22;;
23185;SDS011;11761;51.324;4.590;2022-10-31T06:19:13;6.70;;;3.33;;
23185;SDS011;11761;51.324;4.590;2022-10-31T06:21:39;5.72;;;3.67;;
23185;SDS011;11761;51.324;4.590;2022-10-31T06:24:05;5.90;;;3.80;;
23185;SDS011;11761;51.324;4.590;2022-10-31T06:26:31;6.38;;;3.72;;
23185;SDS011;11761;51.324;4.590;2022-10-31T06:28:57;7.30;;;4.10;;
23185;SDS011;11761;51.324;4.590;2022-10-31T06:31:23;7.15;;;4.43;;
23185;SDS011;11761;51.324;4.590;2022-10-31T06:33:49;6.75;;;4.13;;
23185;SDS011;11761;51.324;4.590;2022-10-31T06:36:15;11.98;;;4.22;;
23185;SDS011;11761;51.324;4.590;2022-10-31T06:38:41;6.55;;;3.80;;
23185;SDS011;11761;51.324;4.590;2022-10-31T06:41:07;8.07;;;4.10;;
23185;SDS011;11761;51.324;4.590;2022-10-31T06:43:33;5.95;;;4.03;;
23185;SDS011;11761;51.324;4.590;2022-10-31T06:46:03;5.55;;;3.97;;
23185;SDS011;11761;51.324;4.590;2022-10-31T06:48:30;6.03;;;3.88;;
23185;SDS011;11761;51.324;4.590;2022-10-31T06:50:57;6.38;;;4.10;;
23185;SDS011;11761;51.324;4.590;2022-10-31T06:53:25;8.23;;;4.30;;
23185;SDS011;11761;51.324;4.590;2022-10-31T06:55:52;8.02;;;4.30;;
23185;SDS011;11761;51.324;4.590;2022-10-31T06:58:18;5.57;;;3.58;;
23185;SDS011;11761;51.324;4.590;2022-10-31T07:00:44;6.63;;;4.15;;
23185;SDS011;11761;51.324;4.590;2022-10-31T07:03:11;8.50;;;4.40;;
23185;SDS011;11761;51.324;4.590;2022-10-31T07:05:38;5.85;;;4.10;;
23185;SDS011;11761;51.324;4.590;2022-10-31T07:08:06;6.40;;;4.30;;
23185;SDS011;11761;51.324;4.590;2022-10-31T07:10:34;5.57;;;3.83;;
23185;SDS011;11761;51.324;4.590;2022-10-31T07:13:05;10.27;;;4.80;;
23185;SDS011;11761;51.324;4.590;2022-10-31T07:15:37;7.50;;;4.45;;
23185;SDS011;11761;51.324;4.590;2022-10-31T07:18:05;6.70;;;4.40;;
23185;SDS011;11761;51.324;4.590;2022-10-31T07:20:33;7.20;;;4.60;;
23185;SDS011;11761;51.324;4.590;2022-10-31T07:22:59;6.90;;;4.57;;
23185;SDS011;11761;51.324;4.590;2022-10-31T07:25:26;9.25;;;5.28;;
23185;SDS011;11761;51.324;4.590;2022-10-31T07:27:52;8.07;;;4.60;;
23185;SDS011;11761;51.324;4.590;2022-10-31T07:30:18;8.98;;;5.38;;
23185;SDS011;11761;51.324;4.590;2022-10-31T07:32:48;11.13;;;4.70;;
23185;SDS011;11761;51.324;4.590;2022-10-31T07:35:16;7.57;;;4.78;;
23185;SDS011;11761;51.324;4.590;2022-10-31T07:37:44;7.90;;;5.15;;
23185;SDS011;11761;51.324;4.590;2022-10-31T07:40:10;11.25;;;5.93;;
23185;SDS011;11761;51.324;4.590;2022-10-31T07:42:37;9.73;;;5.90;;
23185;SDS011;11761;51.324;4.590;2022-10-31T07:45:05;10.88;;;6.40;;
23185;SDS011;11761;51.324;4.590;2022-10-31T07:50:10;13.57;;;8.35;;
23185;SDS011;11761;51.324;4.590;2022-10-31T07:52:40;14.35;;;8.13;;
23185;SDS011;11761;51.324;4.590;2022-10-31T07:55:07;13.18;;;7.35;;
23185;SDS011;11761;51.324;4.590;2022-10-31T07:57:33;13.80;;;7.80;;
23185;SDS011;11761;51.324;4.590;2022-10-31T08:00:00;11.43;;;7.25;;
23185;SDS011;11761;51.324;4.590;2022-10-31T08:02:26;12.95;;;6.32;;
23185;SDS011;11761;51.324;4.590;2022-10-31T08:04:52;13.13;;;7.00;;
23185;SDS011;11761;51.324;4.590;2022-10-31T08:07:18;11.93;;;7.28;;
23185;SDS011;11761;51.324;4.590;2022-10-31T08:09:44;13.60;;;7.25;;
23185;SDS011;11761;51.324;4.590;2022-10-31T08:12:10;14.23;;;7.63;;
23185;SDS011;11761;51.324;4.590;2022-10-31T08:14:37;12.63;;;7.15;;
23185;SDS011;11761;51.324;4.590;2022-10-31T08:17:03;14.40;;;7.00;;
23185;SDS011;11761;51.324;4.590;2022-10-31T08:19:29;14.45;;;6.68;;
23185;SDS011;11761;51.324;4.590;2022-10-31T08:21:55;12.65;;;6.78;;
23185;SDS011;11761;51.324;4.590;2022-10-31T08:24:21;13.48;;;7.47;;
23185;SDS011;11761;51.324;4.590;2022-10-31T08:26:47;11.10;;;6.80;;
23185;SDS011;11761;51.324;4.590;2022-10-31T08:29:14;12.43;;;7.20;;
23185;SDS011;11761;51.324;4.590;2022-10-31T08:31:40;12.90;;;7.30;;
23185;SDS011;11761;51.324;4.590;2022-10-31T08:34:07;13.68;;;6.95;;
23185;SDS011;11761;51.324;4.590;2022-10-31T08:36:34;13.48;;;7.47;;
23185;SDS011;11761;51.324;4.590;2022-10-31T08:39:00;11.75;;;7.28;;
23185;SDS011;11761;51.324;4.590;2022-10-31T08:41:26;13.35;;;7.45;;
23185;SDS011;11761;51.324;4.590;2022-10-31T08:43:52;13.88;;;7.13;;
23185;SDS011;11761;51.324;4.590;2022-10-31T08:46:18;13.02;;;7.15;;
23185;SDS011;11761;51.324;4.590;2022-10-31T08:48:47;14.75;;;9.32;;
23185;SDS011;11761;51.324;4.590;2022-10-31T08:51:13;15.60;;;8.88;;
23185;SDS011;11761;51.324;4.590;2022-10-31T08:53:39;28.45;;;12.63;;
23185;SDS011;11761;51.324;4.590;2022-10-31T08:56:05;40.13;;;16.17;;
23185;SDS011;11761;51.324;4.590;2022-10-31T08:58:32;26.13;;;11.85;;
23185;SDS011;11761;51.324;4.590;2022-10-31T09:00:58;52.65;;;22.88;;
23185;SDS011;11761;51.324;4.590;2022-10-31T09:03:27;22.30;;;11.60;;
23185;SDS011;11761;51.324;4.590;2022-10-31T09:05:55;26.02;;;12.60;;
23185;SDS011;11761;51.324;4.590;2022-10-31T09:08:22;32.38;;;16.30;;
23185;SDS011;11761;51.324;4.590;2022-10-31T09:10:49;17.50;;;9.70;;
23185;SDS011;11761;51.324;4.590;2022-10-31T09:13:19;16.17;;;8.13;;
23185;SDS011;11761;51.324;4.590;2022-10-31T09:15:47;16.67;;;8.88;;
23185;SDS011;11761;51.324;4.590;2022-10-31T09:18:15;13.27;;;8.10;;
23185;SDS011;11761;51.324;4.590;2022-10-31T09:20:44;12.75;;;8.25;;
23185;SDS011;11761;51.324;4.590;2022-10-31T09:23:15;13.13;;;7.65;;
23185;SDS011;11761;51.324;4.590;2022-10-31T09:25:44;14.83;;;8.17;;
23185;SDS011;11761;51.324;4.590;2022-10-31T09:28:12;15.60;;;9.00;;
23185;SDS011;11761;51.324;4.590;2022-10-31T09:30:39;14.95;;;7.93;;
23185;SDS011;11761;51.324;4.590;2022-10-31T09:33:06;13.80;;;7.85;;
23185;SDS011;11761;51.324;4.590;2022-10-31T09:35:36;13.93;;;8.02;;
23185;SDS011;11761;51.324;4.590;2022-10-31T09:38:08;14.77;;;8.15;;
23185;SDS011;11761;51.324;4.590;2022-10-31T09:40:57;16.10;;;8.73;;
23185;SDS011;11761;51.324;4.590;2022-10-31T09:46:04;15.75;;;8.60;;
23185;SDS011;11761;51.324;4.590;2022-10-31T09:52:03;31.85;;;13.25;;
23185;SDS011;11761;51.324;4.590;2022-10-31T09:54:54;14.45;;;8.82;;
23185;SDS011;11761;51.324;4.590;2022-10-31T09:57:26;15.65;;;9.82;;
23185;SDS011;11761;51.324;4.590;2022-10-31T09:59:55;11.48;;;7.78;;
23185;SDS011;11761;51.324;4.590;2022-10-31T10:02:38;13.65;;;8.55;;
23185;SDS011;11761;51.324;4.590;2022-10-31T10:05:12;14.70;;;8.32;;
23185;SDS011;11761;51.324;4.590;2022-10-31T10:07:50;19.42;;;10.18;;
23185;SDS011;11761;51.324;4.590;2022-10-31T10:18:23;21.30;;;10.65;;
23185;SDS011;11761;51.324;4.590;2022-10-31T10:21:09;22.20;;;11.52;;
23185;SDS011;11761;51.324;4.590;2022-10-31T10:26:26;25.60;;;12.32;;
23185;SDS011;11761;51.324;4.590;2022-10-31T10:29:06;23.98;;;12.93;;
23185;SDS011;11761;51.324;4.590;2022-10-31T10:31:54;25.48;;;12.50;;
23185;SDS011;11761;51.324;4.590;2022-10-31T10:34:43;25.23;;;12.45;;
23185;SDS011;11761;51.324;4.590;2022-10-31T10:39:56;23.67;;;13.07;;
23185;SDS011;11761;51.324;4.590;2022-10-31T10:42:41;23.20;;;12.15;;
23185;SDS011;11761;51.324;4.590;2022-10-31T10:45:29;22.73;;;12.95;;
23185;SDS011;11761;51.324;4.590;2022-10-31T10:48:15;22.17;;;12.38;;
23185;SDS011;11761;51.324;4.590;2022-10-31T10:50:50;24.45;;;12.18;;
23185;SDS011;11761;51.324;4.590;2022-10-31T10:56:14;22.08;;;11.98;;
23185;SDS011;11761;51.324;4.590;2022-10-31T10:58:56;25.27;;;12.52;;
23185;SDS011;11761;51.324;4.590;2022-10-31T11:01:22;24.63;;;12.45;;
23185;SDS011;11761;51.324;4.590;2022-10-31T11:03:49;22.35;;;12.27;;
23185;SDS011;11761;51.324;4.590;2022-10-31T11:06:21;23.17;;;12.85;;
23185;SDS011;11761;51.324;4.590;2022-10-31T11:08:51;27.88;;;13.05;;
23185;SDS011;11761;51.324;4.590;2022-10-31T11:11:28;23.48;;;12.45;;
23185;SDS011;11761;51.324;4.590;2022-10-31T11:14:00;25.08;;;13.10;;
23185;SDS011;11761;51.324;4.590;2022-10-31T11:16:37;24.45;;;12.88;;
23185;SDS011;11761;51.324;4.590;2022-10-31T11:19:07;22.98;;;11.93;;
23185;SDS011;11761;51.324;4.590;2022-10-31T11:21:33;26.58;;;13.00;;
23185;SDS011;11761;51.324;4.590;2022-10-31T11:26:29;23.70;;;11.88;;
23185;SDS011;11761;51.324;4.590;2022-10-31T11:28:56;23.45;;;11.40;;
23185;SDS011;11761;51.324;4.590;2022-10-31T11:31:24;25.02;;;11.93;;
23185;SDS011;11761;51.324;4.590;2022-10-31T11:34:00;22.10;;;12.27;;
23185;SDS011;11761;51.324;4.590;2022-10-31T11:36:30;22.10;;;11.90;;
23185;SDS011;11761;51.324;4.590;2022-10-31T11:38:58;22.98;;;12.35;;
23185;SDS011;11761;51.324;4.590;2022-10-31T11:43:56;24.00;;;11.80;;
23185;SDS011;11761;51.324;4.590;2022-10-31T11:46:47;19.52;;;10.98;;
23185;SDS011;11761;51.324;4.590;2022-10-31T11:49:17;26.23;;;11.95;;
23185;SDS011;11761;51.324;4.590;2022-10-31T11:51:54;20.08;;;11.60;;
23185;SDS011;11761;51.324;4.590;2022-10-31T11:54:23;21.92;;;11.38;;
23185;SDS011;11761;51.324;4.590;2022-10-31T11:56:52;23.38;;;11.95;;
23185;SDS011;11761;51.324;4.590;2022-10-31T11:59:22;21.92;;;11.95;;
23185;SDS011;11761;51.324;4.590;2022-10-31T12:01:52;21.83;;;10.93;;
23185;SDS011;11761;51.324;4.590;2022-10-31T12:04:20;21.17;;;11.70;;
23185;SDS011;11761;51.324;4.590;2022-10-31T12:06:58;19.95;;;11.70;;
23185;SDS011;11761;51.324;4.590;2022-10-31T12:09:28;22.55;;;11.85;;
23185;SDS011;11761;51.324;4.590;2022-10-31T12:17:19;20.15;;;10.65;;
23185;SDS011;11761;51.324;4.590;2022-10-31T12:19:56;21.92;;;11.25;;
23185;SDS011;11761;51.324;4.590;2022-10-31T12:25:22;22.25;;;12.50;;
23185;SDS011;11761;51.324;4.590;2022-10-31T12:28:24;21.70;;;12.32;;
23185;SDS011;11761;51.324;4.590;2022-10-31T12:58:09;20.77;;;11.60;;
23185;SDS011;11761;51.324;4.590;2022-10-31T13:00:43;24.10;;;11.50;;
23185;SDS011;11761;51.324;4.590;2022-10-31T13:06:03;21.60;;;11.05;;
23185;SDS011;11761;51.324;4.590;2022-10-31T13:08:38;20.65;;;11.63;;
23185;SDS011;11761;51.324;4.590;2022-10-31T13:11:30;19.38;;;10.77;;
23185;SDS011;11761;51.324;4.590;2022-10-31T13:16:38;20.55;;;10.70;;
23185;SDS011;11761;51.324;4.590;2022-10-31T13:19:17;18.48;;;10.93;;
23185;SDS011;11761;51.324;4.590;2022-10-31T13:24:36;20.00;;;10.55;;
23185;SDS011;11761;51.324;4.590;2022-10-31T13:27:20;20.98;;;10.25;;
23185;SDS011;11761;51.324;4.590;2022-10-31T13:30:03;19.95;;;9.70;;
23185;SDS011;11761;51.324;4.590;2022-10-31T13:32:49;19.60;;;9.80;;
23185;SDS011;11761;51.324;4.590;2022-10-31T13:35:22;16.98;;;10.15;;
23185;SDS011;11761;51.324;4.590;2022-10-31T13:40:38;19.02;;;10.82;;
23185;SDS011;11761;51.324;4.590;2022-10-31T13:43:34;21.00;;;10.63;;
23185;SDS011;11761;51.324;4.590;2022-10-31T13:46:26;16.35;;;8.93;;
23185;SDS011;11761;51.324;4.590;2022-10-31T13:49:02;18.95;;;9.60;;
23185;SDS011;11761;51.324;4.590;2022-10-31T13:51:32;16.50;;;8.82;;
23185;SDS011;11761;51.324;4.590;2022-10-31T13:54:01;17.13;;;9.02;;
23185;SDS011;11761;51.324;4.590;2022-10-31T13:56:47;16.00;;;8.43;;
23185;SDS011;11761;51.324;4.590;2022-10-31T13:59:22;13.95;;;8.63;;
23185;SDS011;11761;51.324;4.590;2022-10-31T14:01:54;17.55;;;8.65;;
23185;SDS011;11761;51.324;4.590;2022-10-31T14:04:24;15.25;;;8.25;;
23185;SDS011;11761;51.324;4.590;2022-10-31T14:07:05;16.42;;;8.93;;
23185;SDS011;11761;51.324;4.590;2022-10-31T14:09:36;15.00;;;8.10;;
23185;SDS011;11761;51.324;4.590;2022-10-31T14:12:22;12.68;;;6.85;;
23185;SDS011;11761;51.324;4.590;2022-10-31T14:15:02;14.55;;;8.55;;
23185;SDS011;11761;51.324;4.590;2022-10-31T14:20:32;14.13;;;8.27;;
23185;SDS011;11761;51.324;4.590;2022-10-31T14:23:38;14.88;;;7.90;;
23185;SDS011;11761;51.324;4.590;2022-10-31T14:26:16;14.75;;;7.20;;
23185;SDS011;11761;51.324;4.590;2022-10-31T14:31:34;13.93;;;7.40;;
23185;SDS011;11761;51.324;4.590;2022-10-31T14:48:11;12.82;;;7.22;;
23185;SDS011;11761;51.324;4.590;2022-10-31T14:51:13;12.65;;;6.90;;
23185;SDS011;11761;51.324;4.590;2022-10-31T14:53:55;14.38;;;6.78;;
23185;SDS011;11761;51.324;4.590;2022-10-31T14:56:34;12.98;;;6.68;;
23185;SDS011;11761;51.324;4.590;2022-10-31T14:59:09;13.63;;;6.82;;
23185;SDS011;11761;51.324;4.590;2022-10-31T15:01:47;12.45;;;7.00;;
23185;SDS011;11761;51.324;4.590;2022-10-31T15:04:23;12.18;;;6.65;;
23185;SDS011;11761;51.324;4.590;2022-10-31T15:06:53;15.43;;;6.85;;
23185;SDS011;11761;51.324;4.590;2022-10-31T15:09:28;11.70;;;6.88;;
23185;SDS011;11761;51.324;4.590;2022-10-31T15:12:00;15.98;;;7.35;;
23185;SDS011;11761;51.324;4.590;2022-10-31T15:14:50;12.30;;;6.72;;
23185;SDS011;11761;51.324;4.590;2022-10-31T15:17:17;12.07;;;7.07;;
23185;SDS011;11761;51.324;4.590;2022-10-31T15:19:43;14.50;;;7.43;;
23185;SDS011;11761;51.324;4.590;2022-10-31T15:22:13;10.88;;;6.93;;
23185;SDS011;11761;51.324;4.590;2022-10-31T15:24:42;12.82;;;7.22;;
23185;SDS011;11761;51.324;4.590;2022-10-31T15:27:16;13.20;;;7.07;;
23185;SDS011;11761;51.324;4.590;2022-10-31T15:29:52;14.60;;;7.57;;
23185;SDS011;11761;51.324;4.590;2022-10-31T15:32:22;14.07;;;7.30;;
23185;SDS011;11761;51.324;4.590;2022-10-31T15:34:50;14.02;;;7.03;;
23185;SDS011;11761;51.324;4.590;2022-10-31T15:37:18;14.63;;;6.93;;
23185;SDS011;11761;51.324;4.590;2022-10-31T15:39:47;12.73;;;7.53;;
23185;SDS011;11761;51.324;4.590;2022-10-31T15:42:21;12.25;;;7.03;;
23185;SDS011;11761;51.324;4.590;2022-10-31T15:45:35;14.07;;;7.07;;
23185;SDS011;11761;51.324;4.590;2022-10-31T15:47:37;16.05;;;7.68;;
23185;SDS011;11761;51.324;4.590;2022-10-31T15:50:05;9.88;;;6.05;;
23185;SDS011;11761;51.324;4.590;2022-10-31T15:52:45;9.40;;;5.78;;
23185;SDS011;11761;51.324;4.590;2022-10-31T15:55:18;8.68;;;5.65;;
23185;SDS011;11761;51.324;4.590;2022-10-31T15:57:48;11.10;;;5.43;;
23185;SDS011;11761;51.324;4.590;2022-10-31T16:03:08;10.80;;;5.57;;
23185;SDS011;11761;51.324;4.590;2022-10-31T16:05:43;10.15;;;5.68;;
23185;SDS011;11761;51.324;4.590;2022-10-31T16:10:49;14.13;;;7.25;;
23185;SDS011;11761;51.324;4.590;2022-10-31T16:13:15;10.95;;;6.75;;
23185;SDS011;11761;51.324;4.590;2022-10-31T16:16:15;14.15;;;7.28;;
23185;SDS011;11761;51.324;4.590;2022-10-31T16:18:39;13.18;;;6.80;;
23185;SDS011;11761;51.324;4.590;2022-10-31T16:21:06;15.25;;;7.55;;
23185;SDS011;11761;51.324;4.590;2022-10-31T16:23:33;16.90;;;7.90;;
23185;SDS011;11761;51.324;4.590;2022-10-31T16:26:05;15.60;;;7.43;;
23185;SDS011;11761;51.324;4.590;2022-10-31T16:28:32;15.45;;;7.32;;
23185;SDS011;11761;51.324;4.590;2022-10-31T16:30:59;17.20;;;9.63;;
23185;SDS011;11761;51.324;4.590;2022-10-31T16:35:56;12.13;;;6.60;;
23185;SDS011;11761;51.324;4.590;2022-10-31T16:38:23;13.88;;;7.00;;
23185;SDS011;11761;51.324;4.590;2022-10-31T16:40:50;15.88;;;7.90;;
23185;SDS011;11761;51.324;4.590;2022-10-31T16:43:18;16.55;;;8.30;;
23185;SDS011;11761;51.324;4.590;2022-10-31T16:45:51;14.23;;;7.38;;
23185;SDS011;11761;51.324;4.590;2022-10-31T16:48:19;16.73;;;8.80;;
23185;SDS011;11761;51.324;4.590;2022-10-31T16:50:48;12.13;;;6.50;;
23185;SDS011;11761;51.324;4.590;2022-10-31T16:53:15;17.40;;;8.18;;
23185;SDS011;11761;51.324;4.590;2022-10-31T16:58:30;13.43;;;7.47;;
23185;SDS011;11761;51.324;4.590;2022-10-31T17:00:58;14.30;;;7.18;;
23185;SDS011;11761;51.324;4.590;2022-10-31T17:03:25;16.08;;;7.68;;
23185;SDS011;11761;51.324;4.590;2022-10-31T17:05:52;12.93;;;6.35;;
23185;SDS011;11761;51.324;4.590;2022-10-31T17:08:20;11.95;;;6.70;;
23185;SDS011;11761;51.324;4.590;2022-10-31T17:10:47;12.48;;;7.28;;